Portada
METAR-TAF:

METAR-TAF

Aeropuertos :

Baréin, Bahréin

Aeropuerto Internacional de Baréin

latitud: 26-16N, longitud: 050-39E, altitud: 2 m

Observación

El informe se hizo hace 31 minutos, a las 17:00 UTC
Viento 4 kt del noreste
Temperatura 26°C
Humedad 74%
Presión 1018 hPa
Visibilidad 10 km o más
Escasas nubes a una altura de 4000 ft

METAR: OBBI 191700Z 05004KT 9999 FEW040 26/21 Q1018 NOSIG

Hora: 20:31 (17:31 UTC)

Pronóstico

El informe se hizo hace 6 horas y 31 minutos, a las 11:00 UTC
Pronóstico válido del 19 a las 12 UTC al 20 a las 18 UTC
Viento 8 kt del este
Visibilidad 10 km o más
Nubes dispersas a una altura de 4000 ft

TAF: OBBI 191100Z 1912/2018 08008KT 9999 SCT040

Observaciones y pronósticos meteorológicos de más de 4000 aeropuertos (mensajes METAR y TAF).

Los puntos amarillos y rojos representan las estaciones disponibles.

Ponga el ratón en el punto deseado para ver el nombre de la estación.

Haga clic para ver las observaciones y los pronósticos meteorológicos.

Para cambiar el mapa : haga clic en los botones verdes con una cruz de color negro para hacer un zoom, en el botón verde con un guión para alejar o en las flechas verdes para mapas adyacentes.


METAR-TAF: